Main page
METAR-TAF:

METAR-TAF

Airports :

Community_Airport

Owosso, Michigan, United States

latitude: 42-59-34N, longitude: 084-08-20W, elevation: 224 m

Current weather observation

The report was made 20 minutes ago, at 18:15 UTC
Calm wind
Temperature 27°C
Humidity 48%
Pressure 1016 hPa
Visibility: 16.1 km
Scattered clouds at a height of 5000 ft

METAR: KRNP 231815Z AUTO 00000KT 10SM SCT050 27/15 A3001 RMK AO2 T02730147

Time: 14:35 (18:35 UTC)


TAF: missing

Weather observations and forecasts of more than 4000 airports (METAR and TAF reports).

The available stations are represented by yellow and red dots on the map.

Hover mouse over dot to see the name of the station.

Then click to see weather observations and forecasts.

To change the map : click on the green buttons with a black cross to zoom in, on the green button with a dash to zoom out, or on the green arrows for adjacent maps.


METAR-TAF: